sensor_id;sensor_type;location;lat;lon;timestamp;P1;durP1;ratioP1;P2;durP2;ratioP2
9007;SDS011;62813;51.424;6.762;2022-10-26T00:01:05;4.13;;;2.73;;
9007;SDS011;62813;51.424;6.762;2022-10-26T00:03:41;5.97;;;2.70;;
9007;SDS011;62813;51.424;6.762;2022-10-26T00:08:39;3.83;;;2.50;;
9007;SDS011;62813;51.424;6.762;2022-10-26T00:11:07;7.63;;;2.43;;
9007;SDS011;62813;51.424;6.762;2022-10-26T00:13:34;8.50;;;2.17;;
9007;SDS011;62813;51.424;6.762;2022-10-26T00:16:06;3.83;;;2.07;;
9007;SDS011;62813;51.424;6.762;2022-10-26T00:18:40;6.80;;;2.30;;
9007;SDS011;62813;51.424;6.762;2022-10-26T00:21:07;5.60;;;2.03;;
9007;SDS011;62813;51.424;6.762;2022-10-26T00:23:35;6.63;;;2.40;;
9007;SDS011;62813;51.424;6.762;2022-10-26T00:26:03;3.83;;;1.90;;
9007;SDS011;62813;51.424;6.762;2022-10-26T00:28:30;6.43;;;1.93;;
9007;SDS011;62813;51.424;6.762;2022-10-26T00:31:04;4.23;;;2.20;;
9007;SDS011;62813;51.424;6.762;2022-10-26T00:33:33;6.60;;;2.30;;
9007;SDS011;62813;51.424;6.762;2022-10-26T00:36:00;4.27;;;2.00;;
9007;SDS011;62813;51.424;6.762;2022-10-26T00:38:27;4.47;;;2.07;;
9007;SDS011;62813;51.424;6.762;2022-10-26T00:40:53;7.23;;;1.97;;
9007;SDS011;62813;51.424;6.762;2022-10-26T00:45:50;7.13;;;2.10;;
9007;SDS011;62813;51.424;6.762;2022-10-26T00:48:22;4.83;;;2.00;;
9007;SDS011;62813;51.424;6.762;2022-10-26T00:50:51;10.13;;;2.43;;
9007;SDS011;62813;51.424;6.762;2022-10-26T00:53:21;3.13;;;1.90;;
9007;SDS011;62813;51.424;6.762;2022-10-26T00:55:49;8.00;;;1.93;;
9007;SDS011;62813;51.424;6.762;2022-10-26T00:58:17;5.17;;;1.70;;
9007;SDS011;62813;51.424;6.762;2022-10-26T01:00:46;3.80;;;1.70;;
9007;SDS011;62813;51.424;6.762;2022-10-26T01:03:14;3.80;;;1.83;;
9007;SDS011;62813;51.424;6.762;2022-10-26T01:05:41;8.83;;;2.00;;
9007;SDS011;62813;51.424;6.762;2022-10-26T01:08:09;7.13;;;2.10;;
9007;SDS011;62813;51.424;6.762;2022-10-26T01:10:37;4.20;;;2.10;;
9007;SDS011;62813;51.424;6.762;2022-10-26T01:13:06;7.70;;;2.43;;
9007;SDS011;62813;51.424;6.762;2022-10-26T01:28:51;5.37;;;2.23;;
9007;SDS011;62813;51.424;6.762;2022-10-26T01:32:22;4.63;;;2.00;;
9007;SDS011;62813;51.424;6.762;2022-10-26T01:37:18;6.00;;;1.87;;
9007;SDS011;62813;51.424;6.762;2022-10-26T01:39:54;3.03;;;2.07;;
9007;SDS011;62813;51.424;6.762;2022-10-26T01:42:28;6.17;;;1.80;;
9007;SDS011;62813;51.424;6.762;2022-10-26T01:45:02;5.97;;;1.90;;
9007;SDS011;62813;51.424;6.762;2022-10-26T01:47:32;4.53;;;1.70;;
9007;SDS011;62813;51.424;6.762;2022-10-26T01:50:01;6.40;;;2.07;;
9007;SDS011;62813;51.424;6.762;2022-10-26T01:52:30;4.97;;;1.87;;
9007;SDS011;62813;51.424;6.762;2022-10-26T01:55:01;6.53;;;1.93;;
9007;SDS011;62813;51.424;6.762;2022-10-26T01:57:31;6.80;;;1.93;;
9007;SDS011;62813;51.424;6.762;2022-10-26T02:00:03;5.73;;;1.73;;
9007;SDS011;62813;51.424;6.762;2022-10-26T02:05:39;4.37;;;1.70;;
9007;SDS011;62813;51.424;6.762;2022-10-26T02:16:48;5.60;;;1.67;;
9007;SDS011;62813;51.424;6.762;2022-10-26T02:22:49;8.57;;;1.87;;
9007;SDS011;62813;51.424;6.762;2022-10-26T02:25:15;4.40;;;1.90;;
9007;SDS011;62813;51.424;6.762;2022-10-26T02:27:48;3.47;;;1.83;;
9007;SDS011;62813;51.424;6.762;2022-10-26T02:30:18;5.13;;;1.90;;
9007;SDS011;62813;51.424;6.762;2022-10-26T02:32:47;6.47;;;1.67;;
9007;SDS011;62813;51.424;6.762;2022-10-26T02:35:18;3.80;;;1.60;;
9007;SDS011;62813;51.424;6.762;2022-10-26T02:37:48;4.50;;;1.70;;
9007;SDS011;62813;51.424;6.762;2022-10-26T02:40:19;5.13;;;1.60;;
9007;SDS011;62813;51.424;6.762;2022-10-26T02:42:50;3.87;;;2.00;;
9007;SDS011;62813;51.424;6.762;2022-10-26T02:45:20;3.50;;;1.60;;
9007;SDS011;62813;51.424;6.762;2022-10-26T02:47:51;4.07;;;1.57;;
9007;SDS011;62813;51.424;6.762;2022-10-26T02:50:20;3.80;;;1.70;;
9007;SDS011;62813;51.424;6.762;2022-10-26T02:53:05;2.87;;;1.53;;
9007;SDS011;62813;51.424;6.762;2022-10-26T02:55:43;6.30;;;1.90;;
9007;SDS011;62813;51.424;6.762;2022-10-26T02:58:15;2.90;;;1.73;;
9007;SDS011;62813;51.424;6.762;2022-10-26T03:00:47;6.77;;;1.80;;
9007;SDS011;62813;51.424;6.762;2022-10-26T03:03:15;4.77;;;1.43;;
9007;SDS011;62813;51.424;6.762;2022-10-26T03:05:43;4.13;;;1.50;;
9007;SDS011;62813;51.424;6.762;2022-10-26T03:08:09;9.77;;;2.20;;
9007;SDS011;62813;51.424;6.762;2022-10-26T03:10:40;5.93;;;1.97;;
9007;SDS011;62813;51.424;6.762;2022-10-26T03:13:09;3.47;;;1.60;;
9007;SDS011;62813;51.424;6.762;2022-10-26T03:15:37;4.00;;;1.60;;
9007;SDS011;62813;51.424;6.762;2022-10-26T03:18:04;3.83;;;1.60;;
9007;SDS011;62813;51.424;6.762;2022-10-26T03:20:31;4.83;;;1.73;;
9007;SDS011;62813;51.424;6.762;2022-10-26T03:22:59;4.83;;;2.00;;
9007;SDS011;62813;51.424;6.762;2022-10-26T03:25:25;5.60;;;1.60;;
9007;SDS011;62813;51.424;6.762;2022-10-26T03:28:02;4.63;;;1.97;;
9007;SDS011;62813;51.424;6.762;2022-10-26T03:30:30;5.53;;;1.87;;
9007;SDS011;62813;51.424;6.762;2022-10-26T03:32:57;3.13;;;1.70;;
9007;SDS011;62813;51.424;6.762;2022-10-26T03:35:24;5.20;;;1.83;;
9007;SDS011;62813;51.424;6.762;2022-10-26T03:37:50;3.70;;;2.07;;
9007;SDS011;62813;51.424;6.762;2022-10-26T03:40:17;8.93;;;2.00;;
9007;SDS011;62813;51.424;6.762;2022-10-26T03:42:44;5.07;;;2.00;;
9007;SDS011;62813;51.424;6.762;2022-10-26T03:45:10;6.23;;;2.07;;
9007;SDS011;62813;51.424;6.762;2022-10-26T03:47:46;5.70;;;1.80;;
9007;SDS011;62813;51.424;6.762;2022-10-26T03:50:15;4.37;;;1.70;;
9007;SDS011;62813;51.424;6.762;2022-10-26T03:52:45;4.63;;;1.60;;
9007;SDS011;62813;51.424;6.762;2022-10-26T03:55:13;6.47;;;1.80;;
9007;SDS011;62813;51.424;6.762;2022-10-26T03:57:40;6.73;;;2.03;;
9007;SDS011;62813;51.424;6.762;2022-10-26T04:00:12;6.47;;;1.90;;
9007;SDS011;62813;51.424;6.762;2022-10-26T04:02:43;8.03;;;1.90;;
9007;SDS011;62813;51.424;6.762;2022-10-26T04:05:14;6.07;;;1.80;;
9007;SDS011;62813;51.424;6.762;2022-10-26T04:07:42;6.90;;;1.87;;
9007;SDS011;62813;51.424;6.762;2022-10-26T04:10:09;8.10;;;2.20;;
9007;SDS011;62813;51.424;6.762;2022-10-26T04:12:36;4.03;;;1.40;;
9007;SDS011;62813;51.424;6.762;2022-10-26T04:15:03;5.33;;;1.63;;
9007;SDS011;62813;51.424;6.762;2022-10-26T04:17:32;5.27;;;1.50;;
9007;SDS011;62813;51.424;6.762;2022-10-26T04:19:59;8.00;;;1.60;;
9007;SDS011;62813;51.424;6.762;2022-10-26T04:22:26;2.70;;;1.40;;
9007;SDS011;62813;51.424;6.762;2022-10-26T04:24:52;4.07;;;1.63;;
9007;SDS011;62813;51.424;6.762;2022-10-26T04:27:19;4.23;;;1.80;;
9007;SDS011;62813;51.424;6.762;2022-10-26T04:29:45;2.27;;;1.33;;
9007;SDS011;62813;51.424;6.762;2022-10-26T04:32:12;2.87;;;1.43;;
9007;SDS011;62813;51.424;6.762;2022-10-26T04:34:38;5.27;;;1.63;;
9007;SDS011;62813;51.424;6.762;2022-10-26T04:37:05;2.27;;;1.40;;
9007;SDS011;62813;51.424;6.762;2022-10-26T04:39:32;4.20;;;1.57;;
9007;SDS011;62813;51.424;6.762;2022-10-26T04:41:59;6.40;;;1.57;;
9007;SDS011;62813;51.424;6.762;2022-10-26T04:44:26;3.90;;;1.70;;
9007;SDS011;62813;51.424;6.762;2022-10-26T04:46:52;2.37;;;1.27;;
9007;SDS011;62813;51.424;6.762;2022-10-26T04:49:19;7.50;;;1.60;;
9007;SDS011;62813;51.424;6.762;2022-10-26T04:51:48;7.37;;;1.57;;
9007;SDS011;62813;51.424;6.762;2022-10-26T04:54:15;6.30;;;1.40;;
9007;SDS011;62813;51.424;6.762;2022-10-26T04:56:41;5.73;;;1.77;;
9007;SDS011;62813;51.424;6.762;2022-10-26T04:59:08;4.50;;;1.50;;
9007;SDS011;62813;51.424;6.762;2022-10-26T05:01:35;5.83;;;1.57;;
9007;SDS011;62813;51.424;6.762;2022-10-26T05:04:01;3.33;;;1.30;;
9007;SDS011;62813;51.424;6.762;2022-10-26T05:06:28;6.27;;;1.70;;
9007;SDS011;62813;51.424;6.762;2022-10-26T05:08:55;2.50;;;1.30;;
9007;SDS011;62813;51.424;6.762;2022-10-26T05:11:22;3.80;;;1.63;;
9007;SDS011;62813;51.424;6.762;2022-10-26T05:13:49;3.67;;;1.27;;
9007;SDS011;62813;51.424;6.762;2022-10-26T05:16:15;6.00;;;1.93;;
9007;SDS011;62813;51.424;6.762;2022-10-26T05:18:42;5.97;;;1.47;;
9007;SDS011;62813;51.424;6.762;2022-10-26T05:21:09;3.80;;;1.77;;
9007;SDS011;62813;51.424;6.762;2022-10-26T05:23:35;3.27;;;1.13;;
9007;SDS011;62813;51.424;6.762;2022-10-26T05:26:02;4.83;;;1.70;;
9007;SDS011;62813;51.424;6.762;2022-10-26T05:28:28;9.90;;;1.77;;
9007;SDS011;62813;51.424;6.762;2022-10-26T05:30:57;3.07;;;1.50;;
9007;SDS011;62813;51.424;6.762;2022-10-26T05:33:23;4.37;;;1.37;;
9007;SDS011;62813;51.424;6.762;2022-10-26T05:35:52;2.03;;;1.20;;
9007;SDS011;62813;51.424;6.762;2022-10-26T05:38:22;4.33;;;1.87;;
9007;SDS011;62813;51.424;6.762;2022-10-26T05:40:49;8.70;;;1.83;;
9007;SDS011;62813;51.424;6.762;2022-10-26T05:43:18;2.43;;;1.20;;
9007;SDS011;62813;51.424;6.762;2022-10-26T05:45:46;3.00;;;1.47;;
9007;SDS011;62813;51.424;6.762;2022-10-26T05:48:12;3.23;;;1.30;;
9007;SDS011;62813;51.424;6.762;2022-10-26T05:50:39;4.33;;;1.77;;
9007;SDS011;62813;51.424;6.762;2022-10-26T05:53:05;5.83;;;1.90;;
9007;SDS011;62813;51.424;6.762;2022-10-26T05:55:33;7.43;;;1.50;;
9007;SDS011;62813;51.424;6.762;2022-10-26T05:58:00;5.47;;;1.77;;
9007;SDS011;62813;51.424;6.762;2022-10-26T06:00:28;6.07;;;1.90;;
9007;SDS011;62813;51.424;6.762;2022-10-26T06:03:01;4.07;;;1.37;;
9007;SDS011;62813;51.424;6.762;2022-10-26T06:05:56;8.93;;;1.63;;
9007;SDS011;62813;51.424;6.762;2022-10-26T06:08:28;8.80;;;1.50;;
9007;SDS011;62813;51.424;6.762;2022-10-26T06:10:55;8.10;;;1.90;;
9007;SDS011;62813;51.424;6.762;2022-10-26T06:13:24;5.57;;;1.70;;
9007;SDS011;62813;51.424;6.762;2022-10-26T06:16:10;5.27;;;1.60;;
9007;SDS011;62813;51.424;6.762;2022-10-26T06:27:15;3.93;;;1.10;;
9007;SDS011;62813;51.424;6.762;2022-10-26T06:32:33;4.03;;;1.70;;
9007;SDS011;62813;51.424;6.762;2022-10-26T06:35:04;3.00;;;1.20;;
9007;SDS011;62813;51.424;6.762;2022-10-26T06:37:32;6.43;;;1.63;;
9007;SDS011;62813;51.424;6.762;2022-10-26T06:40:01;5.03;;;1.70;;
9007;SDS011;62813;51.424;6.762;2022-10-26T06:42:30;5.30;;;1.73;;
9007;SDS011;62813;51.424;6.762;2022-10-26T06:44:57;3.07;;;1.77;;
9007;SDS011;62813;51.424;6.762;2022-10-26T06:47:30;6.67;;;1.70;;
9007;SDS011;62813;51.424;6.762;2022-10-26T06:50:13;5.27;;;1.50;;
9007;SDS011;62813;51.424;6.762;2022-10-26T06:53:15;5.30;;;1.77;;
9007;SDS011;62813;51.424;6.762;2022-10-26T06:55:45;2.73;;;1.30;;
9007;SDS011;62813;51.424;6.762;2022-10-26T06:58:19;3.57;;;1.40;;
9007;SDS011;62813;51.424;6.762;2022-10-26T07:00:49;4.07;;;1.33;;
9007;SDS011;62813;51.424;6.762;2022-10-26T07:03:18;6.90;;;1.40;;
9007;SDS011;62813;51.424;6.762;2022-10-26T07:05:45;4.63;;;1.40;;
9007;SDS011;62813;51.424;6.762;2022-10-26T07:08:12;3.47;;;1.40;;
9007;SDS011;62813;51.424;6.762;2022-10-26T07:10:38;3.73;;;1.50;;
9007;SDS011;62813;51.424;6.762;2022-10-26T07:13:05;4.97;;;1.47;;
9007;SDS011;62813;51.424;6.762;2022-10-26T07:15:35;3.63;;;1.60;;
9007;SDS011;62813;51.424;6.762;2022-10-26T07:18:04;5.57;;;1.33;;
9007;SDS011;62813;51.424;6.762;2022-10-26T07:20:36;3.63;;;2.00;;
9007;SDS011;62813;51.424;6.762;2022-10-26T07:23:04;5.57;;;1.37;;
9007;SDS011;62813;51.424;6.762;2022-10-26T07:25:36;3.23;;;1.23;;
9007;SDS011;62813;51.424;6.762;2022-10-26T07:28:06;3.30;;;1.40;;
9007;SDS011;62813;51.424;6.762;2022-10-26T07:30:36;4.17;;;1.50;;
9007;SDS011;62813;51.424;6.762;2022-10-26T07:33:05;5.23;;;1.40;;
9007;SDS011;62813;51.424;6.762;2022-10-26T07:35:37;5.07;;;1.20;;
9007;SDS011;62813;51.424;6.762;2022-10-26T07:38:04;6.03;;;1.73;;
9007;SDS011;62813;51.424;6.762;2022-10-26T07:40:32;5.60;;;1.50;;
9007;SDS011;62813;51.424;6.762;2022-10-26T07:42:59;3.67;;;1.37;;
9007;SDS011;62813;51.424;6.762;2022-10-26T07:45:27;7.07;;;1.90;;
9007;SDS011;62813;51.424;6.762;2022-10-26T07:47:54;5.27;;;1.60;;
9007;SDS011;62813;51.424;6.762;2022-10-26T07:50:22;5.17;;;1.50;;
9007;SDS011;62813;51.424;6.762;2022-10-26T07:52:49;6.50;;;1.93;;
9007;SDS011;62813;51.424;6.762;2022-10-26T07:55:16;5.03;;;1.60;;
9007;SDS011;62813;51.424;6.762;2022-10-26T07:57:44;4.73;;;1.40;;
9007;SDS011;62813;51.424;6.762;2022-10-26T08:00:16;3.97;;;1.60;;
9007;SDS011;62813;51.424;6.762;2022-10-26T08:02:43;3.83;;;1.30;;
9007;SDS011;62813;51.424;6.762;2022-10-26T08:05:10;4.73;;;1.40;;
9007;SDS011;62813;51.424;6.762;2022-10-26T08:07:43;4.60;;;1.70;;
9007;SDS011;62813;51.424;6.762;2022-10-26T08:10:10;3.93;;;1.77;;
9007;SDS011;62813;51.424;6.762;2022-10-26T08:12:37;6.23;;;1.40;;
9007;SDS011;62813;51.424;6.762;2022-10-26T08:15:05;5.53;;;1.63;;
9007;SDS011;62813;51.424;6.762;2022-10-26T08:17:32;6.20;;;1.80;;
9007;SDS011;62813;51.424;6.762;2022-10-26T08:19:59;6.33;;;1.60;;
9007;SDS011;62813;51.424;6.762;2022-10-26T08:22:27;6.37;;;1.70;;
9007;SDS011;62813;51.424;6.762;2022-10-26T08:24:56;5.97;;;1.53;;
9007;SDS011;62813;51.424;6.762;2022-10-26T08:27:23;5.33;;;1.30;;
9007;SDS011;62813;51.424;6.762;2022-10-26T08:29:50;4.27;;;1.70;;
9007;SDS011;62813;51.424;6.762;2022-10-26T08:32:16;3.63;;;1.87;;
9007;SDS011;62813;51.424;6.762;2022-10-26T08:34:43;2.93;;;1.40;;
9007;SDS011;62813;51.424;6.762;2022-10-26T08:37:10;4.33;;;1.80;;
9007;SDS011;62813;51.424;6.762;2022-10-26T08:39:37;4.27;;;1.73;;
9007;SDS011;62813;51.424;6.762;2022-10-26T08:42:10;4.10;;;1.60;;
9007;SDS011;62813;51.424;6.762;2022-10-26T08:45:00;4.13;;;1.53;;
9007;SDS011;62813;51.424;6.762;2022-10-26T08:47:44;4.87;;;1.67;;
9007;SDS011;62813;51.424;6.762;2022-10-26T08:52:59;3.57;;;1.60;;
9007;SDS011;62813;51.424;6.762;2022-10-26T08:55:33;5.10;;;1.90;;
9007;SDS011;62813;51.424;6.762;2022-10-26T08:58:28;8.97;;;1.83;;
9007;SDS011;62813;51.424;6.762;2022-10-26T09:00:59;3.87;;;2.10;;
9007;SDS011;62813;51.424;6.762;2022-10-26T09:03:27;4.87;;;1.87;;
9007;SDS011;62813;51.424;6.762;2022-10-26T09:05:57;6.20;;;2.20;;
9007;SDS011;62813;51.424;6.762;2022-10-26T09:08:30;3.43;;;1.80;;
9007;SDS011;62813;51.424;6.762;2022-10-26T09:16:43;7.03;;;2.10;;
9007;SDS011;62813;51.424;6.762;2022-10-26T09:19:45;4.57;;;1.90;;
9007;SDS011;62813;51.424;6.762;2022-10-26T09:22:26;5.60;;;1.90;;
9007;SDS011;62813;51.424;6.762;2022-10-26T09:24:55;5.37;;;2.23;;
9007;SDS011;62813;51.424;6.762;2022-10-26T09:27:27;4.90;;;1.97;;
9007;SDS011;62813;51.424;6.762;2022-10-26T09:29:56;7.27;;;2.27;;
9007;SDS011;62813;51.424;6.762;2022-10-26T09:32:36;2.63;;;1.60;;
9007;SDS011;62813;51.424;6.762;2022-10-26T09:35:15;7.90;;;2.33;;
9007;SDS011;62813;51.424;6.762;2022-10-26T09:37:47;4.80;;;1.80;;
9007;SDS011;62813;51.424;6.762;2022-10-26T09:40:22;8.97;;;2.07;;
9007;SDS011;62813;51.424;6.762;2022-10-26T09:42:57;4.23;;;1.70;;
9007;SDS011;62813;51.424;6.762;2022-10-26T09:45:31;5.90;;;2.00;;
9007;SDS011;62813;51.424;6.762;2022-10-26T09:48:04;8.20;;;2.27;;
9007;SDS011;62813;51.424;6.762;2022-10-26T09:50:38;6.03;;;2.10;;
9007;SDS011;62813;51.424;6.762;2022-10-26T09:53:08;3.63;;;2.00;;
9007;SDS011;62813;51.424;6.762;2022-10-26T09:55:38;4.30;;;1.90;;
9007;SDS011;62813;51.424;6.762;2022-10-26T09:58:19;4.17;;;1.90;;
9007;SDS011;62813;51.424;6.762;2022-10-26T10:00:49;7.50;;;2.30;;
9007;SDS011;62813;51.424;6.762;2022-10-26T10:03:24;4.33;;;2.07;;
9007;SDS011;62813;51.424;6.762;2022-10-26T10:05:52;4.00;;;2.10;;
9007;SDS011;62813;51.424;6.762;2022-10-26T10:08:21;4.23;;;2.10;;
9007;SDS011;62813;51.424;6.762;2022-10-26T10:13:29;5.57;;;2.10;;
9007;SDS011;62813;51.424;6.762;2022-10-26T10:18:56;4.87;;;2.13;;
9007;SDS011;62813;51.424;6.762;2022-10-26T10:21:43;6.50;;;2.43;;
9007;SDS011;62813;51.424;6.762;2022-10-26T10:24:27;5.87;;;2.17;;
9007;SDS011;62813;51.424;6.762;2022-10-26T10:29:24;8.07;;;2.53;;
9007;SDS011;62813;51.424;6.762;2022-10-26T10:31:57;4.53;;;2.30;;
9007;SDS011;62813;51.424;6.762;2022-10-26T10:34:28;7.27;;;2.30;;
9007;SDS011;62813;51.424;6.762;2022-10-26T10:36:57;7.73;;;2.40;;
9007;SDS011;62813;51.424;6.762;2022-10-26T10:42:20;6.33;;;2.40;;
9007;SDS011;62813;51.424;6.762;2022-10-26T10:44:50;6.70;;;2.40;;
9007;SDS011;62813;51.424;6.762;2022-10-26T10:47:21;5.80;;;2.60;;
9007;SDS011;62813;51.424;6.762;2022-10-26T10:49:55;4.97;;;2.30;;
9007;SDS011;62813;51.424;6.762;2022-10-26T10:52:24;7.40;;;2.37;;
9007;SDS011;62813;51.424;6.762;2022-10-26T10:54:56;5.97;;;2.50;;
9007;SDS011;62813;51.424;6.762;2022-10-26T11:00:18;10.60;;;2.50;;
9007;SDS011;62813;51.424;6.762;2022-10-26T11:02:52;7.53;;;2.53;;
9007;SDS011;62813;51.424;6.762;2022-10-26T11:05:37;4.57;;;2.20;;
9007;SDS011;62813;51.424;6.762;2022-10-26T11:08:44;6.90;;;2.70;;
9007;SDS011;62813;51.424;6.762;2022-10-26T11:11:11;8.27;;;2.50;;
9007;SDS011;62813;51.424;6.762;2022-10-26T11:21:55;8.20;;;3.57;;
9007;SDS011;62813;51.424;6.762;2022-10-26T11:26:59;14.00;;;4.10;;
9007;SDS011;62813;51.424;6.762;2022-10-26T11:34:59;5.80;;;2.80;;
9007;SDS011;62813;51.424;6.762;2022-10-26T11:44:08;6.07;;;2.00;;
9007;SDS011;62813;51.424;6.762;2022-10-26T11:46:41;9.27;;;2.50;;
9007;SDS011;62813;51.424;6.762;2022-10-26T11:52:05;7.27;;;2.40;;
9007;SDS011;62813;51.424;6.762;2022-10-26T11:57:17;7.70;;;1.90;;
9007;SDS011;62813;51.424;6.762;2022-10-26T11:59:56;4.30;;;1.90;;
9007;SDS011;62813;51.424;6.762;2022-10-26T12:02:27;4.63;;;1.80;;
9007;SDS011;62813;51.424;6.762;2022-10-26T12:07:52;7.50;;;2.23;;
9007;SDS011;62813;51.424;6.762;2022-10-26T12:10:23;4.03;;;2.70;;
9007;SDS011;62813;51.424;6.762;2022-10-26T12:13:00;5.60;;;2.90;;
9007;SDS011;62813;51.424;6.762;2022-10-26T12:15:44;7.20;;;4.27;;
9007;SDS011;62813;51.424;6.762;2022-10-26T12:21:25;4.00;;;1.70;;
9007;SDS011;62813;51.424;6.762;2022-10-26T12:24:00;4.83;;;1.70;;
9007;SDS011;62813;51.424;6.762;2022-10-26T12:26:57;4.40;;;2.30;;
9007;SDS011;62813;51.424;6.762;2022-10-26T12:29:27;4.57;;;1.70;;
9007;SDS011;62813;51.424;6.762;2022-10-26T12:32:03;12.60;;;2.60;;
9007;SDS011;62813;51.424;6.762;2022-10-26T12:42:08;2.30;;;1.50;;
9007;SDS011;62813;51.424;6.762;2022-10-26T13:00:45;5.10;;;2.57;;
9007;SDS011;62813;51.424;6.762;2022-10-26T13:03:34;5.93;;;2.70;;
9007;SDS011;62813;51.424;6.762;2022-10-26T13:06:21;4.20;;;2.03;;
9007;SDS011;62813;51.424;6.762;2022-10-26T13:09:14;5.33;;;2.10;;
9007;SDS011;62813;51.424;6.762;2022-10-26T13:11:46;5.73;;;2.10;;
9007;SDS011;62813;51.424;6.762;2022-10-26T13:14:25;4.33;;;2.17;;
9007;SDS011;62813;51.424;6.762;2022-10-26T13:16:57;6.50;;;2.00;;
9007;SDS011;62813;51.424;6.762;2022-10-26T13:19:41;3.70;;;2.13;;
9007;SDS011;62813;51.424;6.762;2022-10-26T13:22:19;6.17;;;2.00;;
9007;SDS011;62813;51.424;6.762;2022-10-26T13:24:48;6.83;;;2.07;;
9007;SDS011;62813;51.424;6.762;2022-10-26T13:27:21;4.27;;;1.90;;
9007;SDS011;62813;51.424;6.762;2022-10-26T13:32:38;3.43;;;1.47;;
9007;SDS011;62813;51.424;6.762;2022-10-26T13:35:13;6.90;;;2.47;;
9007;SDS011;62813;51.424;6.762;2022-10-26T13:37:42;5.20;;;2.17;;
9007;SDS011;62813;51.424;6.762;2022-10-26T13:40:15;5.17;;;2.30;;
9007;SDS011;62813;51.424;6.762;2022-10-26T13:42:44;4.20;;;2.10;;
9007;SDS011;62813;51.424;6.762;2022-10-26T13:48:02;7.57;;;2.33;;
9007;SDS011;62813;51.424;6.762;2022-10-26T13:50:32;5.40;;;1.67;;
9007;SDS011;62813;51.424;6.762;2022-10-26T13:53:07;4.23;;;1.90;;
9007;SDS011;62813;51.424;6.762;2022-10-26T13:55:49;3.80;;;1.70;;
9007;SDS011;62813;51.424;6.762;2022-10-26T14:03:37;3.20;;;1.67;;
9007;SDS011;62813;51.424;6.762;2022-10-26T14:06:26;3.50;;;2.20;;
9007;SDS011;62813;51.424;6.762;2022-10-26T14:09:00;7.37;;;3.03;;
9007;SDS011;62813;51.424;6.762;2022-10-26T14:11:31;4.97;;;2.47;;
9007;SDS011;62813;51.424;6.762;2022-10-26T14:14:00;21.63;;;3.57;;
9007;SDS011;62813;51.424;6.762;2022-10-26T14:16:30;7.47;;;1.70;;
9007;SDS011;62813;51.424;6.762;2022-10-26T14:18:58;4.63;;;2.17;;
9007;SDS011;62813;51.424;6.762;2022-10-26T14:21:26;8.07;;;2.60;;
9007;SDS011;62813;51.424;6.762;2022-10-26T14:23:56;5.40;;;2.00;;
9007;SDS011;62813;51.424;6.762;2022-10-26T14:26:26;4.50;;;1.77;;
9007;SDS011;62813;51.424;6.762;2022-10-26T14:28:55;9.17;;;1.93;;
9007;SDS011;62813;51.424;6.762;2022-10-26T14:31:31;5.50;;;1.40;;
9007;SDS011;62813;51.424;6.762;2022-10-26T14:33:59;7.43;;;2.00;;
9007;SDS011;62813;51.424;6.762;2022-10-26T14:37:16;4.43;;;1.80;;
9007;SDS011;62813;51.424;6.762;2022-10-26T14:42:14;5.63;;;1.80;;
9007;SDS011;62813;51.424;6.762;2022-10-26T14:44:50;3.37;;;1.70;;
9007;SDS011;62813;51.424;6.762;2022-10-26T14:47:35;4.67;;;1.80;;
9007;SDS011;62813;51.424;6.762;2022-10-26T14:50:02;4.47;;;1.80;;
9007;SDS011;62813;51.424;6.762;2022-10-26T14:52:30;3.07;;;1.60;;
9007;SDS011;62813;51.424;6.762;2022-10-26T14:55:00;2.90;;;1.67;;
9007;SDS011;62813;51.424;6.762;2022-10-26T14:57:33;5.63;;;2.00;;
9007;SDS011;62813;51.424;6.762;2022-10-26T15:02:35;5.27;;;1.70;;
9007;SDS011;62813;51.424;6.762;2022-10-26T15:05:14;4.20;;;1.63;;
9007;SDS011;62813;51.424;6.762;2022-10-26T15:08:00;4.13;;;1.90;;
9007;SDS011;62813;51.424;6.762;2022-10-26T15:13:07;5.40;;;2.23;;
9007;SDS011;62813;51.424;6.762;2022-10-26T15:15:46;4.57;;;2.03;;
9007;SDS011;62813;51.424;6.762;2022-10-26T15:18:26;4.57;;;1.97;;
9007;SDS011;62813;51.424;6.762;2022-10-26T15:20:55;4.53;;;1.97;;
9007;SDS011;62813;51.424;6.762;2022-10-26T15:23:23;3.63;;;1.97;;
9007;SDS011;62813;51.424;6.762;2022-10-26T15:28:29;5.07;;;1.90;;
9007;SDS011;62813;51.424;6.762;2022-10-26T15:33:31;4.57;;;2.27;;
9007;SDS011;62813;51.424;6.762;2022-10-26T15:38:34;5.17;;;3.00;;
9007;SDS011;62813;51.424;6.762;2022-10-26T15:41:02;8.57;;;3.17;;
9007;SDS011;62813;51.424;6.762;2022-10-26T15:43:29;10.07;;;3.13;;
9007;SDS011;62813;51.424;6.762;2022-10-26T15:45:56;3.90;;;2.60;;
9007;SDS011;62813;51.424;6.762;2022-10-26T15:48:23;6.83;;;3.30;;
9007;SDS011;62813;51.424;6.762;2022-10-26T15:50:52;8.57;;;2.90;;
9007;SDS011;62813;51.424;6.762;2022-10-26T15:53:19;4.90;;;2.67;;
9007;SDS011;62813;51.424;6.762;2022-10-26T15:55:51;5.77;;;2.70;;
9007;SDS011;62813;51.424;6.762;2022-10-26T15:58:19;6.67;;;2.60;;
9007;SDS011;62813;51.424;6.762;2022-10-26T16:00:46;7.33;;;2.87;;
9007;SDS011;62813;51.424;6.762;2022-10-26T16:03:18;7.30;;;3.17;;
9007;SDS011;62813;51.424;6.762;2022-10-26T16:05:55;6.77;;;3.00;;
9007;SDS011;62813;51.424;6.762;2022-10-26T16:08:24;5.40;;;3.00;;
9007;SDS011;62813;51.424;6.762;2022-10-26T16:10:53;8.60;;;2.83;;
9007;SDS011;62813;51.424;6.762;2022-10-26T16:13:20;10.03;;;3.80;;
9007;SDS011;62813;51.424;6.762;2022-10-26T16:15:46;10.20;;;4.17;;
9007;SDS011;62813;51.424;6.762;2022-10-26T16:18:13;9.03;;;5.30;;
9007;SDS011;62813;51.424;6.762;2022-10-26T16:20:40;8.80;;;5.03;;
9007;SDS011;62813;51.424;6.762;2022-10-26T16:23:10;9.20;;;5.00;;
9007;SDS011;62813;51.424;6.762;2022-10-26T16:25:44;10.13;;;4.57;;
9007;SDS011;62813;51.424;6.762;2022-10-26T16:28:12;10.57;;;3.90;;
9007;SDS011;62813;51.424;6.762;2022-10-26T16:30:41;7.07;;;3.63;;
9007;SDS011;62813;51.424;6.762;2022-10-26T16:33:08;5.87;;;3.70;;
9007;SDS011;62813;51.424;6.762;2022-10-26T16:35:35;5.30;;;3.50;;
9007;SDS011;62813;51.424;6.762;2022-10-26T16:38:01;6.40;;;4.37;;
9007;SDS011;62813;51.424;6.762;2022-10-26T16:40:28;7.43;;;4.77;;
9007;SDS011;62813;51.424;6.762;2022-10-26T16:42:55;8.90;;;4.90;;
9007;SDS011;62813;51.424;6.762;2022-10-26T16:45:22;11.03;;;5.63;;
9007;SDS011;62813;51.424;6.762;2022-10-26T16:47:48;7.60;;;4.77;;
9007;SDS011;62813;51.424;6.762;2022-10-26T16:50:17;9.97;;;4.50;;
9007;SDS011;62813;51.424;6.762;2022-10-26T16:52:46;8.53;;;5.90;;
9007;SDS011;62813;51.424;6.762;2022-10-26T16:55:12;11.47;;;6.87;;
9007;SDS011;62813;51.424;6.762;2022-10-26T16:57:39;10.77;;;7.40;;
9007;SDS011;62813;51.424;6.762;2022-10-26T17:00:06;19.33;;;10.03;;
9007;SDS011;62813;51.424;6.762;2022-10-26T17:02:33;15.67;;;10.40;;
9007;SDS011;62813;51.424;6.762;2022-10-26T17:05:00;14.37;;;9.73;;
9007;SDS011;62813;51.424;6.762;2022-10-26T17:07:32;18.43;;;11.03;;
9007;SDS011;62813;51.424;6.762;2022-10-26T17:09:59;15.23;;;10.50;;
9007;SDS011;62813;51.424;6.762;2022-10-26T17:12:25;12.90;;;9.00;;
9007;SDS011;62813;51.424;6.762;2022-10-26T17:14:52;11.90;;;8.37;;
9007;SDS011;62813;51.424;6.762;2022-10-26T17:17:18;11.50;;;7.03;;
9007;SDS011;62813;51.424;6.762;2022-10-26T17:19:45;9.00;;;6.10;;
9007;SDS011;62813;51.424;6.762;2022-10-26T17:22:11;7.07;;;4.70;;
9007;SDS011;62813;51.424;6.762;2022-10-26T17:24:38;9.23;;;4.23;;
9007;SDS011;62813;51.424;6.762;2022-10-26T17:27:04;6.87;;;3.40;;
9007;SDS011;62813;51.424;6.762;2022-10-26T17:29:34;7.73;;;4.37;;
9007;SDS011;62813;51.424;6.762;2022-10-26T17:32:00;9.77;;;5.93;;
9007;SDS011;62813;51.424;6.762;2022-10-26T17:34:27;10.77;;;6.53;;
9007;SDS011;62813;51.424;6.762;2022-10-26T17:36:54;11.77;;;7.90;;
9007;SDS011;62813;51.424;6.762;2022-10-26T17:39:20;14.50;;;8.30;;
9007;SDS011;62813;51.424;6.762;2022-10-26T17:41:47;17.67;;;9.30;;
9007;SDS011;62813;51.424;6.762;2022-10-26T17:44:13;10.97;;;7.90;;
9007;SDS011;62813;51.424;6.762;2022-10-26T17:46:40;10.70;;;7.03;;
9007;SDS011;62813;51.424;6.762;2022-10-26T17:49:07;8.20;;;6.27;;
9007;SDS011;62813;51.424;6.762;2022-10-26T17:51:33;10.10;;;5.33;;
9007;SDS011;62813;51.424;6.762;2022-10-26T17:54:00;7.80;;;3.93;;
9007;SDS011;62813;51.424;6.762;2022-10-26T17:56:28;6.47;;;3.73;;